createdAt,value
2018-06-22T00:00:55.651Z,6.60
2018-06-22T00:03:24.811Z,6.70
2018-06-22T00:05:54.030Z,7.00
2018-06-22T00:08:23.118Z,7.40
2018-06-22T00:10:52.218Z,7.03
2018-06-22T00:13:21.307Z,7.60
2018-06-22T00:15:50.396Z,7.20
2018-06-22T00:18:19.546Z,6.90
2018-06-22T00:20:48.674Z,7.70
2018-06-22T00:23:17.797Z,7.55
2018-06-22T00:25:46.938Z,8.60
2018-06-22T00:28:16.038Z,8.20
2018-06-22T00:30:45.130Z,7.70
2018-06-22T00:33:14.330Z,8.97
2018-06-22T00:35:43.411Z,8.20
2018-06-22T00:38:12.538Z,9.10
2018-06-22T00:40:41.661Z,9.63
2018-06-22T00:43:11.142Z,8.85
2018-06-22T00:45:40.312Z,8.33
2018-06-22T00:48:09.441Z,7.78
2018-06-22T00:50:38.555Z,8.43
2018-06-22T00:54:19.446Z,8.67
2018-06-22T00:56:48.544Z,7.47
2018-06-22T00:59:17.657Z,7.23
2018-06-22T01:01:46.799Z,7.57
2018-06-22T01:04:15.883Z,7.73
2018-06-22T01:06:44.988Z,7.60
2018-06-22T01:09:14.196Z,7.00
2018-06-22T01:11:43.384Z,7.27
2018-06-22T01:14:12.480Z,7.60
2018-06-22T01:16:41.613Z,8.10
2018-06-22T01:19:11.565Z,8.80
2018-06-22T01:21:40.748Z,7.40
2018-06-22T01:24:09.883Z,7.50
2018-06-22T01:26:39.001Z,7.77
2018-06-22T01:29:13.503Z,7.10
2018-06-22T01:31:42.602Z,7.40
2018-06-22T01:34:11.696Z,7.13
2018-06-22T01:36:40.805Z,6.33
2018-06-22T01:39:09.993Z,6.07
2018-06-22T01:41:39.088Z,5.90
2018-06-22T01:44:08.196Z,6.40
2018-06-22T01:46:37.270Z,6.28
2018-06-22T01:49:06.524Z,6.80
2018-06-22T01:51:35.633Z,7.33
2018-06-22T01:54:04.796Z,7.37
2018-06-22T01:56:33.882Z,7.20
2018-06-22T01:59:02.990Z,6.67
2018-06-22T02:01:32.149Z,7.43
2018-06-22T02:04:01.233Z,7.00
2018-06-22T02:06:30.395Z,6.87
2018-06-22T02:08:59.485Z,6.30
2018-06-22T02:11:28.586Z,6.37
2018-06-22T02:13:57.705Z,5.70
2018-06-22T02:16:26.799Z,6.40
2018-06-22T02:18:55.897Z,6.53
2018-06-22T02:21:25.024Z,6.42
2018-06-22T02:23:54.160Z,6.70
2018-06-22T02:26:23.239Z,6.63
2018-06-22T02:28:52.363Z,7.30
2018-06-22T02:31:21.477Z,7.37
2018-06-22T02:33:50.653Z,7.03
2018-06-22T02:36:19.783Z,7.50
2018-06-22T02:38:48.902Z,6.00
2018-06-22T02:41:18.025Z,6.10
2018-06-22T02:43:47.133Z,7.60
2018-06-22T02:46:16.219Z,6.45
2018-06-22T02:48:45.361Z,6.43
2018-06-22T02:51:14.770Z,6.80
2018-06-22T02:53:45.453Z,6.27
2018-06-22T02:56:14.561Z,6.57
2018-06-22T02:58:43.697Z,6.63
2018-06-22T03:01:12.782Z,6.40
2018-06-22T03:03:41.894Z,6.07
2018-06-22T03:06:11.016Z,6.87
2018-06-22T03:08:40.157Z,6.13
2018-06-22T03:11:09.337Z,7.33
2018-06-22T03:13:38.458Z,6.80
2018-06-22T03:16:08.974Z,7.40
2018-06-22T03:18:38.071Z,6.80
2018-06-22T03:21:07.361Z,6.60
2018-06-22T03:23:36.467Z,6.20
2018-06-22T03:26:05.757Z,7.60
2018-06-22T03:28:34.952Z,7.90
2018-06-22T03:31:04.060Z,7.63
2018-06-22T03:33:33.280Z,7.27
2018-06-22T03:36:02.413Z,7.50
2018-06-22T03:38:31.521Z,7.90
2018-06-22T03:41:01.478Z,7.10
2018-06-22T03:43:30.579Z,7.67
2018-06-22T03:45:59.703Z,7.37
2018-06-22T03:48:28.783Z,7.10
2018-06-22T03:50:57.909Z,7.30
2018-06-22T03:53:27.006Z,7.87
2018-06-22T03:55:56.138Z,7.20
2018-06-22T03:58:25.279Z,7.47
2018-06-22T04:00:54.375Z,7.80
2018-06-22T04:03:23.477Z,8.30
2018-06-22T04:05:52.589Z,8.70
2018-06-22T04:08:21.665Z,7.47
2018-06-22T04:10:50.825Z,7.87
2018-06-22T04:13:19.960Z,8.00
2018-06-22T04:15:49.057Z,7.40
2018-06-22T04:18:18.149Z,7.07
2018-06-22T04:20:47.260Z,8.83
2018-06-22T04:23:16.350Z,8.55
2018-06-22T04:25:45.473Z,8.30
2018-06-22T04:28:14.584Z,8.73
2018-06-22T04:30:43.705Z,9.30
2018-06-22T04:33:12.809Z,9.07
2018-06-22T04:35:41.921Z,8.27
2018-06-22T04:38:11.215Z,8.57
2018-06-22T04:40:40.320Z,8.40
2018-06-22T04:43:09.439Z,9.00
2018-06-22T04:45:38.553Z,8.73
2018-06-22T04:48:07.717Z,9.97
2018-06-22T04:50:36.850Z,8.10
2018-06-22T04:53:06.103Z,10.63
2018-06-22T04:55:35.214Z,9.10
2018-06-22T04:58:04.634Z,9.47
2018-06-22T05:00:33.795Z,9.97
2018-06-22T05:03:02.913Z,9.47
2018-06-22T05:05:32.041Z,10.60
2018-06-22T05:08:01.169Z,8.97
2018-06-22T05:10:30.310Z,7.47
2018-06-22T05:12:59.510Z,7.47
2018-06-22T05:15:28.650Z,9.07
2018-06-22T05:17:57.790Z,9.07
2018-06-22T05:20:27.813Z,11.47
2018-06-22T05:22:57.018Z,9.88
2018-06-22T05:25:26.178Z,10.20
2018-06-22T05:27:55.330Z,10.70
2018-06-22T05:30:24.591Z,10.67
2018-06-22T05:32:53.685Z,11.25
2018-06-22T05:35:22.900Z,11.35
2018-06-22T05:37:52.026Z,11.65
2018-06-22T05:40:21.230Z,10.47
2018-06-22T05:42:50.378Z,11.43
2018-06-22T05:45:19.929Z,14.37
2018-06-22T05:47:49.195Z,15.80
2018-06-22T05:50:18.373Z,13.23
2018-06-22T05:52:47.528Z,10.67
2018-06-22T05:55:16.766Z,8.68
2018-06-22T05:57:45.907Z,6.90
2018-06-22T06:00:15.084Z,7.57
2018-06-22T06:02:44.261Z,7.07
2018-06-22T06:05:13.410Z,7.90
2018-06-22T06:07:42.568Z,6.70
2018-06-22T06:10:11.729Z,6.40
2018-06-22T06:12:40.870Z,6.53
2018-06-22T06:15:09.992Z,7.30
2018-06-22T06:17:39.113Z,7.13
2018-06-22T06:20:09.494Z,7.17
2018-06-22T06:22:38.658Z,7.10
2018-06-22T06:25:07.988Z,6.80
2018-06-22T06:27:37.789Z,8.17
2018-06-22T06:30:07.266Z,7.50
2018-06-22T06:32:36.422Z,7.90
2018-06-22T06:35:05.678Z,8.20
2018-06-22T06:37:34.793Z,8.30
2018-06-22T06:40:03.979Z,7.70
2018-06-22T06:42:33.102Z,7.33
2018-06-22T06:45:02.202Z,6.67
2018-06-22T06:47:31.331Z,7.10
2018-06-22T06:50:00.453Z,6.43
2018-06-22T06:52:29.590Z,7.80
2018-06-22T06:54:58.774Z,6.30
2018-06-22T06:57:28.251Z,6.15
2018-06-22T06:59:57.352Z,6.60
2018-06-22T07:02:26.512Z,6.80
2018-06-22T07:04:55.681Z,6.30
2018-06-22T07:07:24.784Z,7.00
2018-06-22T07:09:53.882Z,6.90
2018-06-22T07:12:22.966Z,7.27
2018-06-22T07:14:52.055Z,6.20
2018-06-22T07:17:21.114Z,5.65
2018-06-22T07:19:50.241Z,5.73
2018-06-22T07:22:19.374Z,6.57
2018-06-22T07:24:48.505Z,4.60
2018-06-22T07:27:17.654Z,3.50
2018-06-22T07:29:46.751Z,3.20
2018-06-22T07:32:15.858Z,3.70
2018-06-22T07:34:44.967Z,3.87
2018-06-22T07:37:14.060Z,3.13
2018-06-22T07:39:43.138Z,2.67
2018-06-22T07:42:12.283Z,2.23
2018-06-22T07:44:41.363Z,1.90
2018-06-22T07:47:11.398Z,2.50
2018-06-22T07:49:40.556Z,2.30
2018-06-22T07:52:09.639Z,2.50
2018-06-22T07:54:38.709Z,2.57
2018-06-22T07:57:08.089Z,2.87
2018-06-22T07:59:37.186Z,2.20
2018-06-22T08:02:06.348Z,1.73
2018-06-22T08:04:35.490Z,2.53
2018-06-22T08:07:04.598Z,1.77
2018-06-22T08:09:33.737Z,2.30
2018-06-22T08:12:02.928Z,2.10
2018-06-22T08:14:32.032Z,2.57
2018-06-22T08:17:01.150Z,2.00
2018-06-22T08:19:30.681Z,2.17
2018-06-22T08:21:59.789Z,2.93
2018-06-22T08:24:28.910Z,2.10
2018-06-22T08:26:58.038Z,2.47
2018-06-22T08:29:27.133Z,1.90
2018-06-22T08:31:56.220Z,1.77
2018-06-22T08:34:25.409Z,1.73
2018-06-22T08:36:55.305Z,2.47
2018-06-22T08:39:24.392Z,1.47
2018-06-22T08:41:53.627Z,2.70
2018-06-22T08:44:22.689Z,2.90
2018-06-22T08:46:51.849Z,1.83
2018-06-22T08:49:20.961Z,1.77
2018-06-22T08:51:50.055Z,2.00
2018-06-22T08:54:19.165Z,1.50
2018-06-22T08:56:48.266Z,1.63
2018-06-22T08:59:17.349Z,1.53
2018-06-22T09:01:46.515Z,1.77
2018-06-22T09:04:15.618Z,1.87
2018-06-22T09:06:44.823Z,1.83
2018-06-22T09:09:13.913Z,1.90
2018-06-22T09:11:43.086Z,1.80
2018-06-22T09:14:12.190Z,1.40
2018-06-22T09:16:41.297Z,1.90
2018-06-22T09:19:10.727Z,1.57
2018-06-22T09:21:40.420Z,2.23
2018-06-22T09:24:09.503Z,1.67
2018-06-22T09:26:38.653Z,1.93
2018-06-22T09:29:07.911Z,1.93
2018-06-22T09:31:37.075Z,1.40
2018-06-22T09:34:06.196Z,1.30
2018-06-22T09:36:35.258Z,1.70
2018-06-22T09:39:06.897Z,1.70
2018-06-22T09:41:36.051Z,1.80
2018-06-22T09:44:05.325Z,1.77
2018-06-22T09:46:34.434Z,1.30
2018-06-22T09:49:03.780Z,1.70
2018-06-22T09:51:32.877Z,1.97
2018-06-22T09:54:01.974Z,1.73
2018-06-22T09:56:31.134Z,1.40
2018-06-22T09:59:00.253Z,1.60
2018-06-22T10:01:29.375Z,1.50
2018-06-22T10:03:58.514Z,1.30
2018-06-22T10:06:27.700Z,1.37
2018-06-22T10:08:56.842Z,1.90
2018-06-22T10:11:26.007Z,2.40
2018-06-22T10:13:55.114Z,1.57
2018-06-22T10:16:24.237Z,1.60
2018-06-22T10:18:53.361Z,1.30
2018-06-22T10:21:22.545Z,1.57
2018-06-22T10:23:51.660Z,1.93
2018-06-22T10:26:20.872Z,1.17
2018-06-22T10:28:50.106Z,1.40
2018-06-22T10:31:19.221Z,1.23
2018-06-22T10:33:48.341Z,1.80
2018-06-22T10:36:17.436Z,1.20
2018-06-22T10:38:46.566Z,1.47
2018-06-22T10:41:15.848Z,2.00
2018-06-22T10:43:44.972Z,1.00
2018-06-22T10:46:14.202Z,1.27
2018-06-22T10:48:43.493Z,2.10
2018-06-22T10:51:12.750Z,1.50
2018-06-22T10:53:41.912Z,1.40
2018-06-22T10:56:11.174Z,1.30
2018-06-22T10:58:40.409Z,1.10
2018-06-22T11:01:09.517Z,1.20
2018-06-22T11:03:38.661Z,1.40
2018-06-22T11:06:07.771Z,1.40
2018-06-22T11:08:36.904Z,1.17
2018-06-22T11:11:06.377Z,1.30
2018-06-22T11:13:35.594Z,1.43
2018-06-22T11:16:04.733Z,1.50
2018-06-22T11:18:33.851Z,1.30
2018-06-22T11:21:02.949Z,1.20
2018-06-22T11:23:32.049Z,1.37
2018-06-22T11:26:01.249Z,2.00
2018-06-22T11:28:30.355Z,1.47
2018-06-22T11:30:59.433Z,1.40
2018-06-22T11:33:28.672Z,1.40
2018-06-22T11:35:57.749Z,1.30
2018-06-22T11:38:26.898Z,1.93
2018-06-22T11:40:56.053Z,2.23
2018-06-22T11:43:25.242Z,1.50
2018-06-22T11:45:54.362Z,1.73
2018-06-22T11:48:23.481Z,1.73
2018-06-22T11:50:52.581Z,1.90
2018-06-22T11:53:21.697Z,1.80
2018-06-22T11:55:50.832Z,1.90
2018-06-22T11:58:19.964Z,2.00
2018-06-22T12:00:49.061Z,1.43
2018-06-22T12:03:18.179Z,1.80
2018-06-22T12:05:47.298Z,1.53
2018-06-22T12:08:16.416Z,1.23
2018-06-22T12:10:45.540Z,1.60
2018-06-22T12:13:14.717Z,1.80
2018-06-22T12:15:43.823Z,1.30
2018-06-22T12:18:12.988Z,1.30
2018-06-22T12:20:42.070Z,1.10
2018-06-22T12:23:11.422Z,1.70
2018-06-22T12:25:40.568Z,1.27
2018-06-22T12:28:09.702Z,1.57
2018-06-22T12:30:38.881Z,1.40
2018-06-22T12:33:08.202Z,1.73
2018-06-22T12:35:37.448Z,1.80
2018-06-22T12:38:06.668Z,1.50
2018-06-22T12:40:36.116Z,1.40
2018-06-22T12:43:05.584Z,1.33
2018-06-22T12:45:34.777Z,1.93
2018-06-22T12:48:04.012Z,1.30
2018-06-22T12:50:34.319Z,2.02
2018-06-22T12:53:03.486Z,1.60
2018-06-22T12:55:32.756Z,1.70
2018-06-22T12:58:01.942Z,1.43
2018-06-22T13:00:31.049Z,1.30
2018-06-22T13:03:00.276Z,1.30
2018-06-22T13:05:29.397Z,1.60
2018-06-22T13:07:58.569Z,1.57
2018-06-22T13:10:27.735Z,1.53
2018-06-22T13:12:56.862Z,1.40
2018-06-22T13:15:25.974Z,1.42
2018-06-22T13:17:55.094Z,1.90
2018-06-22T13:20:25.785Z,1.50
2018-06-22T13:22:54.880Z,1.42
2018-06-22T13:25:24.113Z,1.70
2018-06-22T13:27:53.240Z,1.93
2018-06-22T13:30:22.488Z,1.60
2018-06-22T13:32:51.597Z,1.90
2018-06-22T13:35:20.715Z,2.45
2018-06-22T13:37:49.830Z,1.63
2018-06-22T13:40:18.996Z,1.97
2018-06-22T13:42:48.188Z,1.60
2018-06-22T13:45:17.329Z,1.77
2018-06-22T13:47:46.617Z,1.90
2018-06-22T13:50:15.782Z,1.63
2018-06-22T13:52:44.816Z,1.90
2018-06-22T13:55:14.037Z,1.57
2018-06-22T13:57:43.173Z,1.80
2018-06-22T14:00:12.336Z,1.90
2018-06-22T14:02:41.505Z,1.70
2018-06-22T14:05:16.820Z,2.80
2018-06-22T14:07:45.980Z,1.63
2018-06-22T14:10:15.338Z,1.80
2018-06-22T14:12:44.455Z,1.90
2018-06-22T14:15:13.704Z,1.87
2018-06-22T14:17:42.794Z,2.10
2018-06-22T14:20:11.933Z,1.77
2018-06-22T14:22:41.109Z,1.70
2018-06-22T14:25:10.217Z,1.93
2018-06-22T14:27:39.352Z,1.87
2018-06-22T14:30:08.569Z,2.20
2018-06-22T14:32:37.829Z,2.37
2018-06-22T14:35:07.140Z,1.43
2018-06-22T14:37:36.265Z,2.23
2018-06-22T14:40:06.390Z,2.63
2018-06-22T14:42:35.572Z,1.80
2018-06-22T14:45:04.800Z,1.93
2018-06-22T14:47:33.959Z,2.30
2018-06-22T14:50:03.141Z,1.80
2018-06-22T14:52:32.251Z,1.60
2018-06-22T14:55:06.783Z,1.80
2018-06-22T14:57:41.052Z,1.73
2018-06-22T15:00:15.413Z,1.57
2018-06-22T15:02:49.757Z,1.70
2018-06-22T15:05:24.043Z,2.37
2018-06-22T15:07:56.133Z,3.07
2018-06-22T15:10:25.441Z,2.30
2018-06-22T15:12:54.553Z,2.37
2018-06-22T15:15:23.778Z,2.30
2018-06-22T15:17:53.952Z,3.40
2018-06-22T15:20:24.331Z,2.33
2018-06-22T15:22:53.549Z,2.00
2018-06-22T15:25:22.661Z,2.27
2018-06-22T15:27:52.573Z,2.40
2018-06-22T15:30:21.680Z,3.00
2018-06-22T15:32:50.813Z,1.50
2018-06-22T15:35:25.099Z,1.67
2018-06-22T15:37:59.427Z,2.20
2018-06-22T15:40:33.726Z,1.70
2018-06-22T15:43:08.212Z,1.50
2018-06-22T15:45:42.684Z,1.53
2018-06-22T15:48:17.034Z,1.33
2018-06-22T15:50:51.177Z,2.00
2018-06-22T15:53:25.512Z,2.08
2018-06-22T15:55:58.837Z,1.50
2018-06-22T15:58:28.025Z,2.00
2018-06-22T16:00:57.192Z,1.37
2018-06-22T16:03:31.631Z,1.80
2018-06-22T16:06:00.810Z,2.33
2018-06-22T16:08:29.984Z,2.07
2018-06-22T16:10:59.133Z,2.00
2018-06-22T16:13:28.332Z,2.47
2018-06-22T16:16:02.616Z,1.80
2018-06-22T16:18:43.258Z,2.00
2018-06-22T16:21:17.621Z,2.03
2018-06-22T16:23:51.916Z,2.10
2018-06-22T16:26:26.229Z,2.20
2018-06-22T16:28:55.291Z,2.70
2018-06-22T16:31:24.384Z,1.85
2018-06-22T16:33:57.351Z,1.80
2018-06-22T16:36:27.757Z,2.20
2018-06-22T16:38:57.269Z,2.43
2018-06-22T16:41:26.461Z,1.87
2018-06-22T16:43:55.541Z,2.12
2018-06-22T16:46:24.687Z,1.70
2018-06-22T16:48:53.770Z,1.30
2018-06-22T16:51:22.906Z,2.70
2018-06-22T16:53:52.034Z,2.17
2018-06-22T16:56:21.180Z,3.43
2018-06-22T16:58:50.345Z,2.67
2018-06-22T17:01:19.461Z,3.27
2018-06-22T17:03:48.593Z,2.07
2018-06-22T17:06:17.696Z,3.00
2018-06-22T17:08:52.077Z,1.70
2018-06-22T17:11:26.366Z,2.33
2018-06-22T17:14:00.773Z,0.80
2018-06-22T17:16:35.230Z,1.07
2018-06-22T17:19:04.445Z,1.37
2018-06-22T17:21:33.513Z,0.90
2018-06-22T17:24:02.615Z,0.80
2018-06-22T17:26:31.762Z,1.13
2018-06-22T17:29:00.892Z,1.10
2018-06-22T17:31:30.003Z,1.00
2018-06-22T17:33:59.142Z,0.87
2018-06-22T17:36:28.251Z,1.10
2018-06-22T17:38:57.349Z,1.00
2018-06-22T17:41:26.521Z,0.60
2018-06-22T17:43:55.595Z,1.07
2018-06-22T17:46:24.765Z,0.80
2018-06-22T17:48:53.905Z,0.93
2018-06-22T17:51:23.149Z,0.90
2018-06-22T17:53:52.242Z,0.87
2018-06-22T17:56:26.593Z,0.83
2018-06-22T17:59:00.990Z,0.70
2018-06-22T18:01:35.257Z,0.80
2018-06-22T18:04:09.674Z,0.90
2018-06-22T18:06:44.086Z,0.90
2018-06-22T18:09:18.424Z,0.77
2018-06-22T18:11:52.982Z,1.00
2018-06-22T18:14:22.126Z,0.90
2018-06-22T18:16:51.253Z,0.87
2018-06-22T18:19:20.362Z,1.00
2018-06-22T18:21:49.545Z,0.97
2018-06-22T18:24:18.706Z,0.87
2018-06-22T18:26:47.857Z,1.20
2018-06-22T18:29:17.010Z,0.93
2018-06-22T18:31:46.137Z,1.10
2018-06-22T18:34:15.264Z,1.10
2018-06-22T18:36:44.432Z,0.90
2018-06-22T18:39:13.730Z,1.20
2018-06-22T18:41:42.846Z,1.33
2018-06-22T18:44:16.898Z,1.42
2018-06-22T18:46:46.590Z,1.40
2018-06-22T18:49:15.658Z,1.30
2018-06-22T18:51:44.783Z,1.35
2018-06-22T18:54:19.166Z,1.50
2018-06-22T18:56:53.691Z,1.70
2018-06-22T18:59:28.070Z,1.40
2018-06-22T19:02:02.322Z,1.87
2018-06-22T19:04:31.585Z,1.35
2018-06-22T19:07:00.765Z,1.70
2018-06-22T19:09:29.851Z,1.77
2018-06-22T19:11:58.982Z,1.10
2018-06-22T19:14:28.157Z,1.40
2018-06-22T19:16:57.255Z,1.67
2018-06-22T19:19:26.389Z,1.40
2018-06-22T19:21:55.496Z,1.83
2018-06-22T19:24:24.618Z,1.80
2018-06-22T19:26:53.737Z,1.60
2018-06-22T19:29:22.858Z,1.72
2018-06-22T19:31:52.037Z,1.70
2018-06-22T19:34:26.358Z,1.60
2018-06-22T19:36:55.502Z,1.60
2018-06-22T19:39:24.597Z,2.03
2018-06-22T19:41:53.733Z,1.97
2018-06-22T19:44:28.029Z,1.80
2018-06-22T19:47:02.457Z,2.03
2018-06-22T19:49:36.823Z,2.17
2018-06-22T19:52:11.159Z,2.37
2018-06-22T19:54:40.256Z,2.27
2018-06-22T19:57:09.489Z,2.20
2018-06-22T19:59:38.649Z,2.10
2018-06-22T20:02:07.790Z,2.47
2018-06-22T20:04:36.956Z,2.47
2018-06-22T20:07:06.418Z,2.90
2018-06-22T20:09:35.612Z,2.40
2018-06-22T20:12:04.718Z,2.80
2018-06-22T20:14:33.910Z,2.80
2018-06-22T20:17:03.041Z,2.63
2018-06-22T20:19:32.177Z,3.30
2018-06-22T20:22:01.317Z,2.70
2018-06-22T20:24:35.675Z,2.83
2018-06-22T20:27:04.929Z,2.80
2018-06-22T20:29:34.057Z,3.30
2018-06-22T20:32:07.328Z,3.00
2018-06-22T20:34:41.509Z,2.40
2018-06-22T20:37:16.700Z,3.50
2018-06-22T20:39:50.908Z,3.60
2018-06-22T20:42:25.281Z,3.03
2018-06-22T20:44:59.714Z,3.50
2018-06-22T20:47:34.017Z,4.25
2018-06-22T20:50:08.471Z,3.43
2018-06-22T20:52:37.600Z,3.90
2018-06-22T20:55:06.949Z,3.15
2018-06-22T20:57:36.054Z,3.20
2018-06-22T21:00:05.442Z,3.83
2018-06-22T21:02:34.608Z,3.37
2018-06-22T21:05:03.765Z,3.57
2018-06-22T21:07:32.957Z,3.35
2018-06-22T21:10:02.105Z,3.43
2018-06-22T21:12:40.417Z,3.10
2018-06-22T21:15:00.626Z,3.50
2018-06-22T21:17:29.788Z,3.47
2018-06-22T21:19:58.927Z,3.30
2018-06-22T21:22:28.038Z,3.53
2018-06-22T21:24:57.205Z,3.20
2018-06-22T21:27:31.555Z,3.00
2018-06-22T21:30:05.953Z,3.00
2018-06-22T21:32:40.417Z,3.13
2018-06-22T21:35:14.814Z,3.23
2018-06-22T21:37:49.129Z,3.07
2018-06-22T21:40:18.302Z,3.17
2018-06-22T21:42:47.842Z,2.80
2018-06-22T21:45:17.013Z,2.53
2018-06-22T21:47:46.237Z,3.20
2018-06-22T21:50:15.425Z,2.60
2018-06-22T21:52:44.551Z,2.93
2018-06-22T21:55:13.690Z,2.57
2018-06-22T21:57:42.910Z,3.00
2018-06-22T22:00:14.245Z,2.47
2018-06-22T22:02:43.353Z,2.83
2018-06-22T22:05:12.514Z,2.70
2018-06-22T22:07:41.739Z,2.83
2018-06-22T22:10:10.980Z,2.63
2018-06-22T22:12:40.061Z,2.80
2018-06-22T22:15:09.320Z,2.60
2018-06-22T22:17:38.420Z,2.03
2018-06-22T22:20:07.596Z,2.80
2018-06-22T22:22:36.908Z,2.50
2018-06-22T22:25:06.329Z,3.10
2018-06-22T22:27:35.464Z,2.73
2018-06-22T22:30:05.202Z,2.47
2018-06-22T22:32:34.479Z,2.80
2018-06-22T22:35:03.740Z,2.40
2018-06-22T22:37:32.973Z,2.90
2018-06-22T22:40:02.085Z,2.60
2018-06-22T22:42:31.229Z,2.90
2018-06-22T22:45:00.449Z,2.77
2018-06-22T22:47:29.716Z,2.43
2018-06-22T22:49:58.852Z,3.13
2018-06-22T22:52:28.041Z,3.00
2018-06-22T22:54:58.041Z,2.47
2018-06-22T22:57:27.162Z,2.65
2018-06-22T22:59:56.350Z,2.70
2018-06-22T23:02:25.501Z,2.80
2018-06-22T23:04:54.717Z,2.83
2018-06-22T23:07:24.005Z,2.98
2018-06-22T23:09:53.246Z,3.00
2018-06-22T23:12:22.442Z,3.20
2018-06-22T23:14:51.660Z,3.10
2018-06-22T23:17:20.819Z,3.70
2018-06-22T23:19:49.989Z,3.13
2018-06-22T23:22:24.688Z,3.13
2018-06-22T23:24:54.247Z,3.00
2018-06-22T23:27:23.365Z,3.33
2018-06-22T23:29:52.523Z,3.37
2018-06-22T23:32:21.639Z,3.33
2018-06-22T23:34:50.768Z,3.70
2018-06-22T23:37:19.917Z,3.20
2018-06-22T23:39:49.045Z,3.40
2018-06-22T23:42:18.225Z,3.07
2018-06-22T23:44:47.368Z,3.58
2018-06-22T23:47:16.513Z,3.60
2018-06-22T23:49:45.739Z,3.17
2018-06-22T23:52:14.903Z,3.73
2018-06-22T23:54:44.034Z,4.50
2018-06-22T23:57:13.224Z,3.47
2018-06-22T23:59:42.384Z,4.03
